Time;durP1;ratioP1;P1;durP2;ratioP2;P2;SDS_P1;SDS_P2;PMS_P1;PMS_P2;Temp;Humidity;BMP_temperature;BMP_pressure;BME280_temperature;BME280_humidity;BME280_pressure;Samples;Min_cycle;Max_cycle;Signal;HPM_P1;HPM_P2
2022/04/20 00:00:38;;;;;;;28.63;13.73;;;;;;;3.21;100.00;99153.94;5006934;28;20414;-90
2022/04/20 00:03:05;;;;;;;25.03;13.23;;;;;;;-0.27;100.00;98547.50;5004551;28;20176;-89
2022/04/20 00:05:33;;;;;;;25.80;12.77;;;;;;;0.91;100.00;98765.91;5004707;28;20675;-88
2022/04/20 00:08:00;;;;;;;19.77;10.80;;;;;;;2.10;100.00;98932.16;5004446;28;20390;-89
2022/04/20 00:10:25;;;;;;;23.70;11.47;;;;;;;1.41;100.00;98821.78;5008787;28;20418;-89
2022/04/20 00:12:51;;;;;;;27.83;13.33;;;;;;;-0.44;100.00;98503.22;5009981;28;20414;-87
2022/04/20 00:15:16;;;;;;;24.87;11.50;;;;;;;1.44;100.00;98851.91;5004872;28;20249;-89
2022/04/20 00:17:42;;;;;;;17.60;9.60;;;;;;;-1.77;100.00;98290.78;5002906;28;20172;-88
2022/04/20 00:20:08;;;;;;;18.00;10.13;;;;;;;-1.41;100.00;98386.84;5001502;28;20253;-89
2022/04/20 00:22:33;;;;;;;16.03;9.53;;;;;;;0.32;100.00;98708.50;5001276;28;20183;-89
2022/04/20 00:24:59;;;;;;;17.00;9.80;;;;;;;1.69;100.00;98960.13;5007861;28;20962;-88
2022/04/20 00:27:25;;;;;;;17.13;9.40;;;;;;;3.36;100.00;99212.50;5012317;28;20573;-88
2022/04/20 00:29:50;;;;;;;16.40;9.57;;;;;;;-0.22;100.00;98611.72;5009821;28;20207;-89
2022/04/20 00:32:16;;;;;;;18.43;10.70;;;;;;;0.79;100.00;98744.25;5010510;28;20151;-88
2022/04/20 00:34:41;;;;;;;21.93;12.90;;;;;;;2.00;100.00;98948.16;5010666;28;20163;-88
2022/04/20 00:37:07;;;;;;;23.40;12.70;;;;;;;1.90;100.00;98912.47;5012123;28;20174;-87
2022/04/20 00:39:33;;;;;;;25.10;14.00;;;;;;;2.55;100.00;99002.75;5006066;28;20175;-88
2022/04/20 00:41:58;;;;;;;23.73;13.00;;;;;;;3.64;100.00;99224.38;4996910;28;20167;-88
2022/04/20 00:44:25;;;;;;;21.77;12.40;;;;;;;-0.20;100.00;98528.19;4997787;28;20737;-88
2022/04/20 00:46:52;;;;;;;29.20;15.57;;;;;;;0.92;100.00;98707.84;4998391;28;20179;-88
2022/04/20 00:49:17;;;;;;;55.33;28.73;;;;;;;2.14;100.00;98921.66;4998766;28;20425;-88
2022/04/20 00:51:53;;;;;;;39.03;21.23;;;;;;;0.84;100.00;98679.06;4997037;28;20510;-88
2022/04/20 00:54:19;;;;;;;50.00;25.10;;;;;;;-0.20;100.00;98532.28;4997137;28;20206;-88
2022/04/20 00:56:44;;;;;;;42.40;22.80;;;;;;;0.62;100.00;98684.91;5000152;28;20790;-89
2022/04/20 00:59:11;;;;;;;26.97;14.30;;;;;;;3.89;100.00;99222.75;4996529;28;20243;-89
2022/04/20 01:01:36;;;;;;;24.73;14.00;;;;;;;4.02;100.00;99222.78;4996665;28;20544;-88
2022/04/20 01:04:01;;;;;;;25.83;14.63;;;;;;;3.14;100.00;99074.25;4996739;28;20441;-89
2022/04/20 01:06:27;;;;;;;37.30;21.87;;;;;;;1.40;100.00;98784.28;4996464;28;20719;-88
2022/04/20 01:08:52;;;;;;;29.87;17.20;;;;;;;1.05;100.00;98731.97;4995755;28;20182;-89
2022/04/20 01:11:18;;;;;;;25.70;14.23;;;;;;;2.54;100.00;99018.50;4997106;28;20202;-89
2022/04/20 01:13:43;;;;;;;23.07;13.20;;;;;;;-1.24;100.00;98411.28;4997893;28;20213;-89
2022/04/20 01:16:09;;;;;;;20.93;11.70;;;;;;;1.69;100.00;98907.72;4998685;28;20175;-90
2022/04/20 01:18:42;;;;;;;23.07;12.87;;;;;;;1.68;100.00;98872.69;4988756;28;20246;-90
2022/04/20 01:21:07;;;;;;;26.73;13.63;;;;;;;-1.87;100.00;98269.38;5002755;28;20310;-90
2022/04/20 01:23:33;;;;;;;32.90;21.20;;;;;;;-0.66;100.00;98464.38;5003073;28;20415;-90
2022/04/20 01:25:58;;;;;;;32.53;18.70;;;;;;;0.96;100.00;98763.75;5004243;28;20693;-90
2022/04/20 01:28:24;;;;;;;31.57;18.80;;;;;;;-1.05;100.00;98424.28;5004894;28;20242;-91
2022/04/20 01:30:49;;;;;;;21.10;12.10;;;;;;;1.53;100.00;98901.56;5004621;28;20164;-89
2022/04/20 01:33:15;;;;;;;17.83;10.50;;;;;;;1.16;100.00;98794.28;5004933;28;20175;-89
2022/04/20 01:35:40;;;;;;;21.10;10.63;;;;;;;1.63;100.00;98888.97;5003112;28;20163;-89
2022/04/20 01:38:06;;;;;;;20.57;11.83;;;;;;;0.54;100.00;98670.31;5005415;28;20221;-91
2022/04/20 01:40:32;;;;;;;69.40;37.67;;;;;;;1.63;100.00;98871.50;5000924;28;20191;-89
2022/04/20 01:42:58;;;;;;;132.93;66.33;;;;;;;0.57;100.00;98705.41;4999452;28;20163;-89
2022/04/20 01:45:24;;;;;;;31.00;17.00;;;;;;;0.18;100.00;98684.25;5001652;28;20518;-89
2022/04/20 01:47:49;;;;;;;21.83;11.93;;;;;;;-1.51;100.00;98382.00;5016164;28;20199;-89
2022/04/20 01:50:15;;;;;;;21.40;12.00;;;;;;;1.20;100.00;98842.72;5016389;28;20190;-90
2022/04/20 01:52:40;;;;;;;20.47;11.23;;;;;;;-2.14;100.00;98297.09;5133454;23;20261;-89
2022/04/20 01:55:06;;;;;;;21.93;11.67;;;;;;;-1.49;100.00;98380.47;5020684;28;20183;-90
2022/04/20 01:57:33;;;;;;;21.23;11.43;;;;;;;0.16;100.00;98686.66;5019711;28;20178;-90
2022/04/20 01:59:58;;;;;;;20.47;11.83;;;;;;;-0.98;100.00;98480.19;5019106;28;20178;-89
2022/04/20 02:02:38;;;;;;;20.17;11.50;;;;;;;2.74;100.00;99124.81;5019928;28;20805;-90
2022/04/20 02:05:09;;;;;;;23.00;12.53;;;;;;;1.58;100.00;98933.56;5018976;28;20190;-89
2022/04/20 02:07:35;;;;;;;21.93;11.63;;;;;;;-1.09;100.00;98459.56;5022067;28;20414;-90
2022/04/20 02:10:01;;;;;;;20.23;11.30;;;;;;;1.60;100.00;98889.63;5027410;28;20929;-90
2022/04/20 02:12:26;;;;;;;20.60;11.60;;;;;;;-0.81;100.00;98475.72;5034921;28;20179;-89
2022/04/20 02:14:53;;;;;;;23.33;12.10;;;;;;;1.21;100.00;98831.13;5034236;28;20422;-89
2022/04/20 02:17:19;;;;;;;26.47;14.30;;;;;;;1.19;100.00;98839.34;5026715;28;20688;-90
2022/04/20 02:19:45;;;;;;;26.13;13.60;;;;;;;-2.21;100.00;98265.19;5029841;28;20409;-89
2022/04/20 02:22:11;;;;;;;27.70;13.30;;;;;;;3.17;100.00;99183.59;5029500;28;20171;-89
2022/04/20 02:24:36;;;;;;;28.57;15.67;;;;;;;-1.50;100.00;98371.28;5028388;28;20214;-89
2022/04/20 02:27:02;;;;;;;42.17;22.20;;;;;;;-0.56;100.00;98559.47;5026101;28;20190;-89
2022/04/20 02:29:27;;;;;;;40.83;21.20;;;;;;;-1.19;100.00;98414.97;5025470;28;20167;-89
2022/04/20 02:31:53;;;;;;;35.07;17.77;;;;;;;0.06;100.00;98658.47;5025737;28;20256;-88
2022/04/20 02:34:21;;;;;;;31.67;16.70;;;;;;;-1.59;100.00;98400.41;5026647;28;20454;-89
2022/04/20 02:36:47;;;;;;;28.80;13.87;;;;;;;-2.35;100.00;98240.13;5026546;28;20260;-89
2022/04/20 02:39:12;;;;;;;29.27;14.60;;;;;;;-1.88;100.00;98317.28;5030317;28;20426;-89
2022/04/20 02:41:40;;;;;;;29.33;14.30;;;;;;;0.74;100.00;98816.16;5033858;28;20170;-88
2022/04/20 02:44:07;;;;;;;32.93;17.67;;;;;;;0.47;100.00;98715.44;5029458;28;20203;-90
2022/04/20 02:46:33;;;;;;;36.03;17.80;;;;;;;0.45;100.00;98736.88;5023643;28;20954;-90
2022/04/20 02:48:59;;;;;;;36.70;19.13;;;;;;;-2.06;100.00;98300.19;5025972;28;20963;-90
2022/04/20 02:51:24;;;;;;;67.57;35.03;;;;;;;3.07;100.00;99236.25;5026031;28;20417;-89
2022/04/20 02:53:50;;;;;;;89.67;41.73;;;;;;;1.47;100.00;98916.09;5028643;28;20650;-89
2022/04/20 02:56:16;;;;;;;75.40;30.00;;;;;;;-3.01;100.00;98235.19;5026558;28;20175;-90
2022/04/20 02:58:41;;;;;;;51.83;21.83;;;;;;;-1.70;100.00;98428.50;5027084;28;20878;-89
2022/04/20 03:01:07;;;;;;;66.53;25.57;;;;;;;1.02;100.00;98908.69;5027322;28;20177;-90
2022/04/20 03:03:33;;;;;;;73.13;29.80;;;;;;;1.65;100.00;99027.13;5026426;28;20179;-90
2022/04/20 03:05:59;;;;;;;77.60;33.00;;;;;;;-2.03;100.00;98378.09;5025196;28;20202;-90
2022/04/20 03:08:24;;;;;;;65.60;21.27;;;;;;;-2.83;100.00;98284.38;5023788;28;20449;-90
2022/04/20 03:10:51;;;;;;;77.70;29.93;;;;;;;-2.97;100.00;98336.16;5025702;28;20182;-89
2022/04/20 03:13:18;;;;;;;65.90;30.53;;;;;;;-2.49;100.00;98387.75;5025467;28;20172;-89
2022/04/20 03:15:44;;;;;;;78.93;35.83;;;;;;;0.79;100.00;98919.50;5025200;28;20465;-90
2022/04/20 03:18:10;;;;;;;81.97;33.87;;;;;;;-2.49;100.00;98315.91;5026251;28;20748;-90
2022/04/20 03:20:37;;;;;;;154.10;51.57;;;;;;;-1.95;100.00;98418.38;5029077;28;20421;-91
2022/04/20 03:23:03;;;;;;;169.70;58.40;;;;;;;-0.08;100.00;98744.53;5032118;28;20171;-90
2022/04/20 03:25:29;;;;;;;130.63;40.33;;;;;;;2.32;100.00;99260.91;5033104;28;20488;-90
2022/04/20 03:27:54;;;;;;;110.57;33.13;;;;;;;-1.85;100.00;98518.38;5029832;28;20418;-90
2022/04/20 03:30:20;;;;;;;133.47;48.30;;;;;;;-1.18;100.00;98615.28;5029986;28;20163;-90
2022/04/20 03:32:46;;;;;;;228.30;77.23;;;;;;;1.03;100.00;99045.00;5030528;28;20175;-90
2022/04/20 03:35:16;;;;;;;79.70;30.70;;;;;;;2.23;100.00;99215.25;5033535;28;20162;-92
2022/04/20 03:40:09;;;;;;;52.90;23.30;;;;;;;-2.70;100.00;98389.44;5014224;28;20501;-90
2022/04/20 03:42:38;;;;;;;53.83;23.60;;;;;;;-1.55;100.00;98580.97;5013484;28;20458;-90
2022/04/20 03:45:04;;;;;;;49.03;22.23;;;;;;;0.50;100.00;98928.91;5009597;28;20207;-90
2022/04/20 03:47:30;;;;;;;53.17;23.97;;;;;;;2.33;100.00;99255.13;5008060;28;21010;-90
2022/04/20 03:49:56;;;;;;;56.20;24.00;;;;;;;-0.35;100.00;98792.22;5006674;28;20431;-89
2022/04/20 03:52:21;;;;;;;55.47;24.23;;;;;;;0.73;100.00;98960.50;5009107;28;20262;-89
2022/04/20 03:54:50;;;;;;;54.90;24.83;;;;;;;1.28;100.00;99041.06;5010253;28;20195;-90
2022/04/20 03:57:16;;;;;;;60.40;26.37;;;;;;;-2.31;100.00;98425.47;5010725;28;20214;-91
2022/04/20 03:59:42;;;;;;;60.27;26.23;;;;;;;1.35;100.00;99065.69;5008626;28;20411;-88
2022/04/20 04:02:11;;;;;;;78.50;38.30;;;;;;;-2.44;100.00;98448.41;5012518;28;20622;-92
2022/04/20 04:04:40;;;;;;;125.60;59.23;;;;;;;-1.99;100.00;98530.44;5012826;28;20417;-89
2022/04/20 04:07:09;;;;;;;124.20;58.07;;;;;;;0.74;100.00;98944.81;5010586;28;20485;-89
2022/04/20 04:09:38;;;;;;;112.53;49.20;;;;;;;2.25;100.00;99197.91;5015526;28;20426;-91
2022/04/20 04:12:06;;;;;;;92.63;37.73;;;;;;;-0.36;100.00;98771.50;5017872;28;20457;-89
2022/04/20 04:14:37;;;;;;;80.80;36.47;;;;;;;-2.14;100.00;98430.13;5027518;23;20573;-89
2022/04/20 04:17:03;;;;;;;87.27;38.80;;;;;;;0.84;100.00;98912.34;5010316;28;20434;-89
2022/04/20 04:19:30;;;;;;;131.53;54.53;;;;;;;-1.22;100.00;98566.16;5025623;28;20534;-89
2022/04/20 04:21:56;;;;;;;85.03;38.73;;;;;;;-1.58;100.00;98452.59;5005799;28;20418;-89
2022/04/20 04:24:37;;;;;;;76.30;36.93;;;;;;;0.33;100.00;98770.00;4977651;28;20411;-89
2022/04/20 04:27:06;;;;;;;84.87;40.53;;;;;;;0.43;100.00;98759.94;5003134;28;20458;-90
2022/04/20 04:29:33;;;;;;;102.77;46.37;;;;;;;1.47;100.00;98956.88;5006547;28;20475;-89
2022/04/20 04:31:59;;;;;;;87.90;42.07;;;;;;;1.06;100.00;98883.22;5008703;28;20407;-90
2022/04/20 04:34:26;;;;;;;70.17;35.83;;;;;;;-0.58;100.00;98575.91;5008977;28;20465;-90
2022/04/20 04:36:51;;;;;;;76.30;38.77;;;;;;;-0.94;100.00;98537.69;5002947;28;20424;-89
2022/04/20 04:39:21;;;;;;;87.27;41.03;;;;;;;-0.78;100.00;98540.53;4990190;28;20423;-91
2022/04/20 04:41:48;;;;;;;118.57;53.17;;;;;;;0.30;100.00;98764.78;4983259;28;20172;-90
2022/04/20 04:44:14;;;;;;;120.17;51.10;;;;;;;2.75;100.00;99117.41;5004164;28;20407;-89
2022/04/20 04:49:23;;;;;;;95.53;44.43;;;;;;;2.92;100.00;99089.44;5005650;28;20165;-89
2022/04/20 04:51:49;;;;;;;78.00;37.80;;;;;;;4.08;100.00;99275.78;5004501;28;20863;-88
2022/04/20 04:54:15;;;;;;;88.87;41.93;;;;;;;3.39;100.00;99112.63;5000396;28;20178;-88
2022/04/20 04:56:41;;;;;;;64.07;31.40;;;;;;;1.94;100.00;98847.03;4998931;28;20179;-89
2022/04/20 04:59:06;;;;;;;53.17;25.87;;;;;;;4.33;100.00;99273.25;4996763;28;20508;-88
2022/04/20 05:01:32;;;;;;;93.50;42.60;;;;;;;2.73;100.00;98971.50;4995847;28;20172;-88
2022/04/20 05:03:57;;;;;;;91.70;42.03;;;;;;;4.18;100.00;99226.38;4996448;28;20611;-88
2022/04/20 05:06:22;;;;;;;67.23;30.00;;;;;;;3.49;100.00;99109.97;4995899;28;20274;-87
2022/04/20 05:08:48;;;;;;;66.00;30.67;;;;;;;3.58;100.00;99130.59;5002393;28;20179;-87
2022/04/20 05:11:14;;;;;;;72.37;33.80;;;;;;;3.31;100.00;99035.34;5009660;28;20189;-88
2022/04/20 05:13:39;;;;;;;76.57;35.93;;;;;;;4.56;100.00;99177.88;5003045;28;20219;-89
2022/04/20 05:16:04;;;;;;;56.73;29.87;;;;;;;3.71;100.00;99074.69;4995625;28;20207;-89
2022/04/20 05:18:30;;;;;;;69.47;35.17;;;;;;;0.41;100.00;98508.41;4995424;28;20179;-89
2022/04/20 05:20:56;;;;;;;45.13;23.27;;;;;;;5.23;100.00;99263.19;4981900;28;20191;-89
2022/04/20 05:23:21;;;;;;;67.40;33.30;;;;;;;4.16;100.00;99080.16;4975135;28;20694;-88
2022/04/20 05:25:48;;;;;;;137.53;62.57;;;;;;;5.10;100.00;99270.75;4978220;28;20223;-88
2022/04/20 05:28:14;;;;;;;97.60;47.23;;;;;;;2.23;100.00;98763.34;5020287;28;20180;-89
2022/04/20 05:30:39;;;;;;;460.47;166.87;;;;;;;3.30;100.00;98911.03;5014065;28;20819;-88
2022/04/20 05:33:05;;;;;;;88.97;36.73;;;;;;;5.46;100.00;99267.13;5016951;28;20190;-87
2022/04/20 05:35:30;;;;;;;54.03;28.17;;;;;;;1.79;100.00;98573.28;5018104;28;20209;-90
2022/04/20 05:43:24;;;;;;;51.17;28.43;;;;;;;4.80;100.00;98888.56;5002696;28;20424;-88
2022/04/20 05:45:51;;;;;;;39.47;19.00;;;;;;;7.46;100.00;99260.34;5002708;28;20421;-89
2022/04/20 05:48:16;;;;;;;39.70;21.63;;;;;;;6.15;98.37;99026.75;5002620;28;20168;-88
2022/04/20 05:50:43;;;;;;;37.93;19.90;;;;;;;7.72;97.93;99244.94;5023384;28;20468;-89
2022/04/20 05:53:08;;;;;;;46.57;23.90;;;;;;;7.45;100.00;99258.59;5022428;28;20175;-90
2022/04/20 05:55:35;;;;;;;36.47;19.63;;;;;;;4.78;100.00;98886.75;5022078;28;20683;-88
2022/04/20 05:58:00;;;;;;;51.37;26.90;;;;;;;6.44;100.00;99137.28;5019907;28;20575;-88
2022/04/20 06:00:26;;;;;;;45.73;24.80;;;;;;;6.24;100.00;99060.78;5020151;28;20432;-89
2022/04/20 06:02:54;;;;;;;40.57;21.20;;;;;;;7.48;100.00;99276.41;5021162;28;20213;-90
2022/04/20 06:05:31;;;;;;;38.07;18.80;;;;;;;5.44;100.00;98998.44;5004950;28;20202;-90
2022/04/20 06:07:59;;;;;;;40.03;19.80;;;;;;;6.79;100.00;99149.25;4995848;28;20430;-91
2022/04/20 06:10:29;;;;;;;36.83;20.03;;;;;;;6.60;100.00;99030.84;4978929;28;20425;-89
2022/04/20 06:12:55;;;;;;;44.17;22.00;;;;;;;5.31;98.61;98773.56;5024692;28;20469;-89
2022/04/20 06:15:21;;;;;;;39.37;20.23;;;;;;;8.12;96.26;99236.91;5002027;28;20536;-88
2022/04/20 06:17:46;;;;;;;43.27;21.40;;;;;;;5.60;97.87;98914.84;5001502;28;20174;-90
2022/04/20 06:20:12;;;;;;;34.23;18.80;;;;;;;3.74;98.29;98626.88;5003242;28;20183;-90
2022/04/20 06:22:37;;;;;;;38.27;19.70;;;;;;;6.15;99.08;98989.94;5006879;28;20198;-90
2022/04/20 06:25:03;;;;;;;34.80;18.77;;;;;;;7.72;99.45;99221.38;4994499;28;20235;-90
2022/04/20 06:27:30;;;;;;;37.20;21.10;;;;;;;6.56;97.35;98956.06;5001230;28;20189;-88
2022/04/20 06:29:55;;;;;;;33.93;19.30;;;;;;;6.81;93.06;98947.31;5013931;28;20183;-88
2022/04/20 06:32:23;;;;;;;36.83;20.13;;;;;;;7.90;94.23;99164.38;5037672;28;20444;-89
2022/04/20 06:34:49;;;;;;;40.70;17.77;;;;;;;6.82;92.86;98943.16;5022531;28;20253;-91
2022/04/20 06:37:14;;;;;;;28.50;17.00;;;;;;;8.13;93.86;99152.94;5038106;22;20234;-89
2022/04/20 06:39:41;;;;;;;35.00;18.47;;;;;;;7.96;92.85;99105.88;5018077;28;20197;-89
2022/04/20 06:42:07;;;;;;;32.57;18.33;;;;;;;7.09;92.24;98932.81;5036839;28;20179;-90
2022/04/20 06:44:34;;;;;;;35.20;19.73;;;;;;;5.87;92.51;98775.72;5036697;28;20189;-90
2022/04/20 06:47:00;;;;;;;35.13;20.17;;;;;;;8.47;95.93;99226.94;5011656;28;20441;-90
2022/04/20 06:49:26;;;;;;;38.73;21.93;;;;;;;8.07;95.27;99137.50;5032595;28;20167;-90
2022/04/20 07:00:05;;;;;;;42.57;23.83;;;;;;;7.80;94.64;99046.28;5006973;28;20239;-90
2022/04/20 07:02:31;;;;;;;57.00;32.07;;;;;;;8.62;95.64;99187.31;4998273;28;20180;-90
2022/04/20 07:04:56;;;;;;;44.83;26.27;;;;;;;6.91;95.75;98889.16;5025354;28;20258;-88
2022/04/20 07:07:22;;;;;;;38.97;21.07;;;;;;;7.34;95.67;99012.94;5017262;28;20167;-90
2022/04/20 07:09:47;;;;;;;50.77;29.23;;;;;;;7.92;96.78;99119.09;5001829;28;20196;-88
2022/04/20 07:12:13;;;;;;;41.83;23.83;;;;;;;8.21;96.89;99149.13;4996431;28;20193;-90
2022/04/20 07:14:39;;;;;;;39.90;22.47;;;;;;;7.32;96.52;98964.16;4996950;28;20211;-89
2022/04/20 07:17:06;;;;;;;36.80;22.60;;;;;;;8.83;94.59;99231.25;4996468;28;20182;-90
2022/04/20 07:19:31;;;;;;;35.57;18.90;;;;;;;8.88;95.77;99242.41;4997410;28;20183;-90
2022/04/20 07:21:57;;;;;;;31.30;18.03;;;;;;;6.25;95.79;98791.09;5003302;28;20175;-91
2022/04/20 07:24:22;;;;;;;29.00;17.67;;;;;;;6.49;97.15;98855.16;5016693;28;20178;-88
2022/04/20 07:26:48;;;;;;;30.03;18.57;;;;;;;8.77;96.81;99233.47;4991139;28;20247;-91
2022/04/20 07:29:13;;;;;;;34.00;19.50;;;;;;;6.77;95.43;98856.53;4998147;28;20183;-90
2022/04/20 07:31:38;;;;;;;34.83;21.13;;;;;;;8.97;95.86;99225.97;4980990;28;20694;-90
2022/04/20 07:34:04;;;;;;;31.63;18.40;;;;;;;6.99;93.82;98913.03;4977397;28;20176;-89
2022/04/20 07:36:29;;;;;;;37.87;22.73;;;;;;;7.66;96.55;99068.28;4975857;28;20228;-89
2022/04/20 07:38:55;;;;;;;47.00;22.53;;;;;;;6.45;96.46;98858.31;4982546;28;20179;-88
2022/04/20 07:41:20;;;;;;;38.13;22.63;;;;;;;7.62;97.88;99086.56;4986310;28;20226;-89
2022/04/20 07:43:46;;;;;;;55.83;30.10;;;;;;;7.01;98.87;98915.59;5010858;28;20329;-88
2022/04/20 07:46:13;;;;;;;46.93;25.43;;;;;;;7.44;98.49;98997.50;5016305;28;20167;-91
2022/04/20 07:48:39;;;;;;;44.77;24.80;;;;;;;7.16;97.85;98941.56;5018220;28;20187;-89
2022/04/20 07:51:05;;;;;;;45.50;25.30;;;;;;;7.21;97.07;98955.22;5016451;28;20185;-89
2022/04/20 07:53:31;;;;;;;55.57;34.60;;;;;;;8.69;97.59;99214.56;5024789;28;20247;-91
2022/04/20 07:55:56;;;;;;;44.27;27.17;;;;;;;7.13;98.65;98954.84;5033753;28;20221;-89
2022/04/20 07:58:22;;;;;;;36.30;21.77;;;;;;;6.70;100.00;98990.34;5020899;28;20166;-89
2022/04/20 08:00:49;;;;;;;39.63;22.47;;;;;;;6.21;100.00;98834.44;5025053;28;20171;-87
2022/04/20 08:03:16;;;;;;;44.20;26.20;;;;;;;5.04;97.37;98566.41;5034145;28;20179;-87
2022/04/20 08:05:46;;;;;;;44.70;26.97;;;;;;;5.83;96.77;98666.66;5018049;28;20178;-88
2022/04/20 08:08:12;;;;;;;40.27;22.60;;;;;;;5.85;98.13;98798.22;5032674;28;20252;-86
2022/04/20 08:10:38;;;;;;;45.30;22.97;;;;;;;4.57;100.00;98676.69;5031495;28;20644;-88
2022/04/20 08:14:09;;;;;;;57.07;28.20;;;;;;;4.31;100.00;98640.97;5019704;28;20183;-89
2022/04/20 08:15:49;;;;;;;57.33;34.10;;;;;;;8.64;100.00;99227.75;5016212;28;20206;-89
2022/04/20 08:18:15;;;;;;;47.83;26.93;;;;;;;5.76;99.85;98663.78;5031480;28;20238;-88
2022/04/20 08:20:41;;;;;;;70.77;40.80;;;;;;;9.14;98.49;99215.88;5015811;28;20170;-90
2022/04/20 08:23:06;;;;;;;52.30;29.23;;;;;;;6.53;100.00;98955.13;5014219;28;20217;-89
2022/04/20 08:25:31;;;;;;;80.70;37.07;;;;;;;7.39;100.00;99108.88;5014321;28;20190;-88
2022/04/20 08:27:57;;;;;;;75.87;40.70;;;;;;;7.68;100.00;99103.63;5031338;28;20166;-89
2022/04/20 08:30:22;;;;;;;63.47;36.27;;;;;;;6.19;100.00;98830.97;5032193;28;20642;-88
2022/04/20 08:32:48;;;;;;;70.10;38.10;;;;;;;7.14;100.00;98960.75;5015549;28;20198;-88
2022/04/20 08:35:13;;;;;;;61.43;32.53;;;;;;;8.51;100.00;99228.84;5015678;28;20356;-89
2022/04/20 08:37:39;;;;;;;58.83;34.87;;;;;;;8.90;100.00;99228.19;5032865;28;20263;-89
2022/04/20 08:40:05;;;;;;;46.10;25.40;;;;;;;8.68;100.00;99235.53;5026649;28;20694;-89
2022/04/20 08:42:34;;;;;;;43.10;24.80;;;;;;;6.97;100.00;98954.00;5005208;28;20179;-89
2022/04/20 08:45:02;;;;;;;64.63;37.67;;;;;;;6.76;100.00;98962.97;4995226;28;20178;-87
2022/04/20 08:47:34;;;;;;;53.70;31.27;;;;;;;7.80;100.00;99136.13;4995496;28;20410;-88
2022/04/20 08:50:01;;;;;;;91.90;51.53;;;;;;;7.94;100.00;99228.44;5014786;28;20583;-89
2022/04/20 08:52:37;;;;;;;64.93;36.53;;;;;;;4.77;100.00;98675.28;5019081;28;20444;-88
2022/04/20 08:55:04;;;;;;;64.17;33.70;;;;;;;6.61;100.00;98992.38;5046343;28;20531;-88
2022/04/20 08:57:32;;;;;;;63.53;34.73;;;;;;;7.13;100.00;99042.06;5035945;28;20441;-87
2022/04/20 08:59:57;;;;;;;78.67;44.43;;;;;;;7.97;100.00;99198.31;5013936;28;20411;-88
2022/04/20 09:02:28;;;;;;;43.20;24.10;;;;;;;6.34;100.00;98923.91;5000743;28;20443;-89
2022/04/20 09:04:54;;;;;;;64.70;36.43;;;;;;;7.07;100.00;99041.75;4995045;28;20179;-89
2022/04/20 09:07:19;;;;;;;53.57;30.57;;;;;;;7.80;100.00;99220.13;5021777;28;20418;-88
2022/04/20 09:09:45;;;;;;;53.97;31.63;;;;;;;7.40;100.00;99103.03;5028728;28;20432;-89
2022/04/20 09:12:14;;;;;;;66.17;35.83;;;;;;;8.20;100.00;99200.34;5019563;28;20260;-90
2022/04/20 09:14:43;;;;;;;48.10;26.53;;;;;;;8.26;100.00;99201.50;5035312;28;20594;-88
2022/04/20 09:17:13;;;;;;;50.73;27.30;;;;;;;6.22;100.00;98830.28;5021153;28;20422;-90
2022/04/20 09:19:39;;;;;;;50.27;28.10;;;;;;;6.47;100.00;98856.75;5015582;28;20421;-88
2022/04/20 09:22:22;;;;;;;48.17;27.53;;;;;;;7.09;100.00;98950.44;5002139;28;20418;-88
2022/04/20 09:25:11;;;;;;;50.63;27.57;;;;;;;8.70;100.00;99198.66;5000629;28;20193;-88
2022/04/20 09:27:42;;;;;;;52.33;29.23;;;;;;;8.20;100.00;99144.88;5021371;28;20182;-90
2022/04/20 09:30:16;;;;;;;96.03;52.57;;;;;;;7.70;100.00;99064.25;5003214;28;20171;-90
2022/04/20 09:32:44;;;;;;;136.63;76.17;;;;;;;7.40;100.00;98969.56;5002557;28;20167;-89
2022/04/20 09:35:12;;;;;;;71.73;40.63;;;;;;;8.87;100.00;99192.72;4999159;28;20202;-88
2022/04/20 09:37:39;;;;;;;61.80;34.70;;;;;;;7.32;100.00;98896.19;4996940;28;20230;-88
2022/04/20 09:40:06;;;;;;;62.43;33.50;;;;;;;7.86;100.00;98988.63;4995294;28;20234;-88
2022/04/20 09:42:34;;;;;;;54.70;30.83;;;;;;;8.71;100.00;99131.34;5030064;28;20725;-89
2022/04/20 09:45:02;;;;;;;58.03;33.53;;;;;;;7.34;100.00;98882.00;4998849;28;20195;-90
2022/04/20 09:50:23;;;;;;;55.77;30.87;;;;;;;9.18;100.00;99171.41;5013407;28;20251;-90
2022/04/20 09:52:50;;;;;;;50.10;28.57;;;;;;;8.84;100.00;99063.84;5002831;28;20185;-88
2022/04/20 09:55:26;;;;;;;52.87;29.77;;;;;;;7.37;100.00;98805.75;5003856;28;20586;-87
2022/04/20 09:57:53;;;;;;;49.80;28.47;;;;;;;8.43;100.00;99023.28;5004118;28;20171;-89
2022/04/20 10:00:20;;;;;;;48.87;28.97;;;;;;;6.07;100.00;98604.22;5003069;28;20179;-89
2022/04/20 10:02:50;;;;;;;54.97;32.37;;;;;;;9.31;99.74;99153.50;5002171;28;20235;-89
2022/04/20 10:05:18;;;;;;;58.40;33.00;;;;;;;7.53;100.00;98805.66;5000995;28;20187;-88
2022/04/20 10:07:44;;;;;;;79.30;42.43;;;;;;;7.62;98.24;98809.47;5001053;28;20218;-88
2022/04/20 10:10:10;;;;;;;68.77;39.10;;;;;;;9.03;99.04;99036.91;4996941;28;20207;-89
2022/04/20 10:12:39;;;;;;;90.90;47.00;;;;;;;7.66;100.00;98928.88;4997946;28;20168;-89
2022/04/20 10:18:03;;;;;;;104.00;53.27;;;;;;;6.05;100.00;98604.94;5007941;28;20202;-90
2022/04/20 10:20:33;;;;;;;87.90;43.70;;;;;;;6.52;100.00;98691.91;5013609;28;20217;-90
2022/04/20 10:23:02;;;;;;;76.77;41.97;;;;;;;7.18;100.00;98766.28;5027810;28;20195;-91
2022/04/20 10:25:28;;;;;;;66.70;37.47;;;;;;;8.09;100.00;98914.09;5009606;28;20198;-90
2022/04/20 10:28:17;;;;;;;76.87;40.93;;;;;;;7.98;100.00;98847.19;5019917;28;20191;-89
2022/04/20 10:30:59;;;;;;;112.73;61.47;;;;;;;9.56;100.00;99107.41;5000699;28;20190;-90
2022/04/20 10:33:28;;;;;;;84.03;46.07;;;;;;;9.27;100.00;99055.63;5002457;28;20179;-91
2022/04/20 10:35:54;;;;;;;93.83;50.03;;;;;;;9.68;100.00;99093.63;5001222;28;20302;-91
2022/04/20 10:38:20;;;;;;;78.93;41.73;;;;;;;9.78;99.35;99092.38;5000624;28;20591;-91
2022/04/20 10:41:05;;;;;;;78.57;42.37;;;;;;;9.90;98.45;99088.66;4998202;28;20249;-91
2022/04/20 10:43:31;;;;;;;82.17;44.70;;;;;;;6.35;98.26;98475.72;5010915;28;20691;-92
2022/04/20 10:46:11;;;;;;;80.13;45.47;;;;;;;6.22;98.21;98458.38;5028931;28;20190;-92
2022/04/20 10:48:47;;;;;;;86.50;48.33;;;;;;;9.97;99.40;99110.84;5030437;28;20249;-91
2022/04/20 10:51:32;;;;;;;87.93;45.70;;;;;;;10.29;99.88;99098.69;5026437;28;20181;-88
2022/04/20 10:54:22;;;;;;;103.53;52.20;;;;;;;10.45;96.84;99093.44;5028456;28;20277;-91
2022/04/20 10:57:08;;;;;;;104.57;56.77;;;;;;;10.55;97.19;99086.25;5022014;28;20190;-89
2022/04/20 10:59:34;;;;;;;117.73;60.00;;;;;;;9.82;97.14;98988.03;5021101;28;20206;-91
2022/04/20 11:02:01;;;;;;;87.20;49.40;;;;;;;10.47;97.64;99069.03;5039985;28;20174;-89
2022/04/20 11:04:50;;;;;;;105.27;58.20;;;;;;;6.90;95.81;98394.34;5023493;28;20638;-89
2022/04/20 11:07:32;;;;;;;81.27;46.07;;;;;;;9.32;95.71;98761.16;5040688;28;20182;-89
2022/04/20 11:10:02;;;;;;;61.13;34.80;;;;;;;10.46;94.08;98946.72;5043782;28;20202;-89
2022/04/20 11:18:43;;;;;;;60.20;34.70;;;;;;;10.83;93.96;98997.00;5037179;28;20177;-89
2022/04/20 11:21:09;;;;;;;55.63;33.50;;;;;;;10.46;91.82;98842.13;5021466;28;20174;-90
2022/04/20 11:23:57;;;;;;;53.13;31.87;;;;;;;11.77;88.24;99028.19;5022474;28;20167;-90
2022/04/20 11:26:28;;;;;;;63.07;38.63;;;;;;;11.70;88.65;98968.78;5021744;28;20190;-91
2022/04/20 11:29:24;;;;;;;44.90;27.87;;;;;;;12.08;84.19;99020.75;5020252;28;20171;-91
2022/04/20 11:31:51;;;;;;;39.57;24.90;;;;;;;10.93;84.22;98869.88;4925004;29;20201;-88
2022/04/20 11:34:22;;;;;;;50.63;30.87;;;;;;;11.96;83.48;99014.41;4924960;29;20268;-91
2022/04/20 11:36:51;;;;;;;40.87;27.10;;;;;;;10.40;83.84;98771.91;4941974;29;20229;-90
2022/04/20 11:39:18;;;;;;;39.03;24.80;;;;;;;8.30;84.66;98476.34;4946297;29;20185;-91
2022/04/20 11:41:49;;;;;;;44.03;26.97;;;;;;;11.05;84.42;98958.09;4935146;29;20237;-91
2022/04/20 11:44:21;;;;;;;44.80;27.33;;;;;;;7.70;86.35;98434.50;4946384;28;20717;-91
2022/04/20 11:46:47;;;;;;;47.80;29.10;;;;;;;6.60;87.36;98233.78;4927050;29;20181;-93
2022/04/20 11:49:13;;;;;;;54.10;29.70;;;;;;;11.21;88.78;99018.63;4944199;29;20288;-91